Weather at Torquay Airport

Public forecast

Using degrees Celsius for public forecast. Weather courtesy of forecast.io.

Closest aviation weather report (METAR) to Torquay Airport

Closest report is Avalon Airport, 16.4 nm (30.4 km) NNE.

2024/07/18 16:30 (retrieved 27 minutes ago)

YMAV 181630Z AUTO 01009KT 9999 // NCD 07/04 Q1012 RF000/0000

Closest aviation forecast (TAF) to Torquay Airport

Closest forecast is Avalon Airport, 16.4 nm (30.4 km) NNE.

2024/07/18 12:36 (retrieved 4 hours ago)

TAF TAF YMAV 181129Z 1812/1912 34012KT CAVOK FM182300 34015G30KT CAVOK FM190200 35015G30KT 9999 -RA BKN040